Time;durP1;ratioP1;P1;durP2;ratioP2;P2;SDS_P1;SDS_P2;PMS_P1;PMS_P2;Temp;Humidity;BMP_temperature;BMP_pressure;BME280_temperature;BME280_humidity;BME280_pressure;Samples;Min_cycle;Max_cycle;Signal;HPM_P1;HPM_P2
2022/03/01 00:00:48;;;;;;;;;;;;;;;3.35;82.35;102816.28;5044407;28;19917;-77
2022/03/01 00:03:13;;;;;;;;;;;;;;;3.34;82.76;102818.16;5066238;28;19916;-76
2022/03/01 00:05:39;;;;;;;;;;;;;;;3.33;82.41;102812.94;5053601;28;19916;-77
2022/03/01 00:08:04;;;;;;;;;;;;;;;3.32;82.75;102812.09;5053558;28;19928;-76
2022/03/01 00:10:29;;;;;;;;;;;;;;;3.33;82.76;102812.94;5060294;28;19916;-76
2022/03/01 00:12:54;;;;;;;;;;;;;;;3.32;82.98;102805.84;5045360;28;20298;-76
2022/03/01 00:15:20;;;;;;;;;;;;;;;3.33;82.34;102797.59;5051963;28;20431;-76
2022/03/01 00:17:45;;;;;;;;;;;;;;;3.34;82.14;102796.56;5049287;28;19932;-76
2022/03/01 00:20:10;;;;;;;;;;;;;;;3.36;82.37;102793.72;5050003;28;19931;-76
2022/03/01 00:22:36;;;;;;;;;;;;;;;3.37;81.98;102792.69;5054293;28;19916;-75
2022/03/01 00:25:01;;;;;;;;;;;;;;;3.36;82.21;102780.22;5051493;28;19917;-77
2022/03/01 00:27:26;;;;;;;;;;;;;;;3.38;82.25;102794.34;5047648;28;19928;-77
2022/03/01 00:29:52;;;;;;;;;;;;;;;3.40;81.93;102786.09;5042578;28;19928;-77
2022/03/01 00:32:17;;;;;;;;;;;;;;;3.42;82.26;102795.69;5053028;28;19917;-77
2022/03/01 00:34:42;;;;;;;;;;;;;;;3.43;81.80;102808.16;5054693;28;19924;-76
2022/03/01 00:37:07;;;;;;;;;;;;;;;3.44;82.04;102796.38;5055048;28;19949;-76
2022/03/01 00:39:33;;;;;;;;;;;;;;;3.45;81.62;102784.56;5090100;28;19921;-76
2022/03/01 00:41:58;;;;;;;;;;;;;;;3.45;81.63;102789.94;5047736;28;20286;-77
2022/03/01 00:44:23;;;;;;;;;;;;;;;3.49;81.52;102779.63;5045745;28;19917;-76
2022/03/01 00:46:48;;;;;;;;;;;;;;;3.50;81.08;102784.88;5070260;28;19928;-76
2022/03/01 00:49:14;;;;;;;;;;;;;;;3.51;81.24;102793.78;5043308;28;19939;-76
2022/03/01 00:51:39;;;;;;;;;;;;;;;3.53;81.29;102776.41;5050360;28;19924;-76
2022/03/01 00:54:04;;;;;;;;;;;;;;;3.52;81.01;102785.53;5049787;28;19916;-75
2022/03/01 00:56:30;;;;;;;;;;;;;;;3.55;80.92;102774.38;5044586;28;19979;-74
2022/03/01 00:58:56;;;;;;;;;;;;;;;3.55;80.68;102774.38;5043062;28;19916;-75
2022/03/01 01:01:21;;;;;;;;;;;;;;;3.56;81.21;102775.22;5047583;28;19917;-75
2022/03/01 01:03:46;;;;;;;;;;;;;;;3.57;80.93;102774.19;5053268;28;19999;-76
2022/03/01 01:06:11;;;;;;;;;;;;;;;3.58;81.17;102783.16;5053770;28;19955;-75
2022/03/01 01:08:36;;;;;;;;;;;;;;;3.58;81.15;102783.97;5089919;28;19929;-76
2022/03/01 01:11:02;;;;;;;;;;;;;;;3.60;81.19;102786.47;5048271;28;19978;-75
2022/03/01 01:13:29;;;;;;;;;;;;;;;3.60;81.01;102776.56;5036031;28;19921;-75
2022/03/01 01:15:54;;;;;;;;;;;;;;;3.60;81.02;102778.38;5057163;28;19931;-76
2022/03/01 01:18:19;;;;;;;;;;;;;;;3.61;81.34;102774.69;5076871;28;19929;-75
2022/03/01 01:20:44;;;;;;;;;;;;;;;3.60;81.37;102773.00;5071863;28;19949;-76
2022/03/01 01:23:09;;;;;;;;;;;;;;;3.61;81.42;102783.63;5081079;28;19982;-76
2022/03/01 01:25:35;;;;;;;;;;;;;;;3.61;81.50;102772.84;5044852;28;19917;-76
2022/03/01 01:28:00;;;;;;;;;;;;;;;3.63;81.75;102759.16;5070431;28;19925;-76
2022/03/01 01:30:26;;;;;;;;;;;;;;;3.62;81.90;102765.56;5049512;28;19938;-76
2022/03/01 01:32:51;;;;;;;;;;;;;;;3.63;81.80;102769.94;5076757;28;20390;-76
2022/03/01 01:35:17;;;;;;;;;;;;;;;3.63;82.04;102768.09;5048122;28;19962;-76
2022/03/01 01:37:43;;;;;;;;;;;;;;;3.63;82.62;102759.16;5074402;28;20296;-75
2022/03/01 01:40:10;;;;;;;;;;;;;;;3.64;82.33;102756.28;5074747;28;20334;-75
2022/03/01 01:42:36;;;;;;;;;;;;;;;3.64;82.78;102753.59;5041938;28;19917;-76
2022/03/01 01:45:01;;;;;;;;;;;;;;;3.64;82.74;102769.78;5044168;28;19931;-76
2022/03/01 01:47:26;;;;;;;;;;;;;;;3.63;82.94;102753.75;5076831;28;19956;-76
2022/03/01 01:49:51;;;;;;;;;;;;;;;3.61;83.32;102758.50;5046150;28;20372;-75
2022/03/01 01:52:17;;;;;;;;;;;;;;;3.59;83.75;102763.25;5053905;28;20060;-76
2022/03/01 01:54:42;;;;;;;;;;;;;;;3.59;83.76;102765.94;5048427;28;19917;-76
2022/03/01 01:57:14;;;;;;;;;;;;;;;3.57;84.23;102774.19;5045966;28;19917;-76
2022/03/01 01:59:39;;;;;;;;;;;;;;;3.56;84.58;102759.88;5044452;28;19924;-75
2022/03/01 02:02:05;;;;;;;;;;;;;;;3.55;84.51;102760.06;5045032;28;19917;-75
2022/03/01 02:04:31;;;;;;;;;;;;;;;3.53;84.92;102752.16;5043674;28;20390;-76
2022/03/01 02:06:56;;;;;;;;;;;;;;;3.52;84.68;102758.56;5044010;28;19928;-76
2022/03/01 02:09:21;;;;;;;;;;;;;;;3.51;84.77;102753.34;5057014;28;19946;-75
2022/03/01 02:11:46;;;;;;;;;;;;;;;3.50;85.26;102755.19;5051176;28;19927;-76
2022/03/01 02:14:12;;;;;;;;;;;;;;;3.47;85.26;102743.94;5050330;28;19923;-76
2022/03/01 02:16:37;;;;;;;;;;;;;;;3.45;85.58;102746.81;5056338;28;19916;-76
2022/03/01 02:19:06;;;;;;;;;;;;;;;3.46;85.74;102747.63;5055985;28;19921;-76
2022/03/01 02:21:31;;;;;;;;;;;;;;;3.45;85.59;102746.81;5081777;28;19921;-75
2022/03/01 02:23:56;;;;;;;;;;;;;;;3.44;85.94;102734.34;5075368;28;20015;-76
2022/03/01 02:26:21;;;;;;;;;;;;;;;3.43;85.87;102734.50;5042135;28;20289;-75
2022/03/01 02:28:47;;;;;;;;;;;;;;;3.43;86.14;102719.16;5046089;28;19921;-76
2022/03/01 02:31:12;;;;;;;;;;;;;;;3.42;86.13;102736.38;5049440;28;20012;-76
2022/03/01 02:33:37;;;;;;;;;;;;;;;3.42;86.19;102740.94;5062851;28;19947;-75
2022/03/01 02:36:02;;;;;;;;;;;;;;;3.42;86.27;102741.78;5045987;28;19931;-76
2022/03/01 02:38:28;;;;;;;;;;;;;;;3.43;86.07;102721.88;5057541;28;19924;-76
2022/03/01 02:40:53;;;;;;;;;;;;;;;3.41;86.12;102732.00;5055298;28;20297;-76
2022/03/01 02:43:18;;;;;;;;;;;;;;;3.42;86.47;102730.16;5037796;28;20240;-75
2022/03/01 02:45:43;;;;;;;;;;;;;;;3.42;86.65;102725.59;5050969;28;20292;-76
2022/03/01 02:48:09;;;;;;;;;;;;;;;3.42;86.73;102730.97;5043307;28;20038;-76
2022/03/01 02:50:34;;;;;;;;;;;;;;;3.42;86.45;102717.50;5047094;28;19916;-75
2022/03/01 02:52:59;;;;;;;;;;;;;;;3.40;86.65;102700.66;5041902;28;20286;-76
2022/03/01 02:55:24;;;;;;;;;;;;;;;3.41;86.75;102699.66;5048664;28;20267;-75
2022/03/01 02:57:50;;;;;;;;;;;;;;;3.41;86.76;102713.13;5080694;28;20204;-76
2022/03/01 03:00:15;;;;;;;;;;;;;;;3.41;86.84;102705.03;5049931;28;19948;-76
2022/03/01 03:02:41;;;;;;;;;;;;;;;3.40;87.40;102694.44;5045276;28;19935;-76
2022/03/01 03:05:06;;;;;;;;;;;;;;;3.38;87.03;102713.47;5048492;28;19916;-75
2022/03/01 03:07:31;;;;;;;;;;;;;;;3.39;87.45;102704.38;5046069;28;20339;-76
2022/03/01 03:09:57;;;;;;;;;;;;;;;3.38;87.22;102699.16;5095561;28;20481;-76
2022/03/01 03:12:22;;;;;;;;;;;;;;;3.38;87.57;102708.06;5044120;28;20076;-76
2022/03/01 03:14:48;;;;;;;;;;;;;;;3.39;87.78;102698.16;5052410;28;19916;-76
2022/03/01 03:17:13;;;;;;;;;;;;;;;3.37;87.37;102695.63;5039180;28;19917;-76
2022/03/01 03:19:38;;;;;;;;;;;;;;;3.38;87.68;102696.47;5046992;28;19921;-75
2022/03/01 03:22:05;;;;;;;;;;;;;;;3.38;87.72;102699.16;5042384;28;19917;-76
2022/03/01 03:24:30;;;;;;;;;;;;;;;3.39;88.01;102688.19;5051622;28;19924;-76
2022/03/01 03:26:55;;;;;;;;;;;;;;;3.38;87.74;102694.59;5040202;28;19928;-76
2022/03/01 03:29:22;;;;;;;;;;;;;;;3.40;87.87;102689.88;5047750;28;20020;-75
2022/03/01 03:31:47;;;;;;;;;;;;;;;3.40;88.13;102691.72;5048252;28;19999;-75
2022/03/01 03:34:12;;;;;;;;;;;;;;;3.38;88.06;102686.50;5078213;28;20023;-77
2022/03/01 03:36:38;;;;;;;;;;;;;;;3.38;88.20;102694.59;5044015;28;19960;-75
2022/03/01 03:39:04;;;;;;;;;;;;;;;3.38;88.42;102686.50;5053512;28;20390;-75
2022/03/01 03:41:29;;;;;;;;;;;;;;;3.39;88.50;102688.19;5036889;28;19921;-75
2022/03/01 03:43:54;;;;;;;;;;;;;;;3.40;88.43;102689.88;5047937;28;20011;-75
2022/03/01 03:46:20;;;;;;;;;;;;;;;3.41;88.40;102691.56;5046690;28;19964;-75
2022/03/01 03:48:46;;;;;;;;;;;;;;;3.42;88.68;102684.31;5052163;28;20514;-75
2022/03/01 03:51:12;;;;;;;;;;;;;;;3.43;88.61;102688.66;5039803;28;19928;-75
2022/03/01 03:53:38;;;;;;;;;;;;;;;3.45;88.60;102690.16;5044848;28;20004;-75
2022/03/01 03:56:03;;;;;;;;;;;;;;;3.45;88.87;102692.03;5083054;28;20346;-75
2022/03/01 03:58:28;;;;;;;;;;;;;;;3.47;88.37;102685.44;5036064;28;19965;-75
2022/03/01 04:00:54;;;;;;;;;;;;;;;3.50;88.48;102687.78;5038467;28;19917;-75
2022/03/01 04:03:19;;;;;;;;;;;;;;;3.50;88.51;102685.09;5044345;28;19963;-75
2022/03/01 04:05:45;;;;;;;;;;;;;;;3.52;88.90;102701.94;5049648;28;20003;-75
2022/03/01 04:08:13;;;;;;;;;;;;;;;3.53;88.56;102668.53;5045517;28;19971;-75
2022/03/01 04:10:38;;;;;;;;;;;;;;;3.55;88.52;102671.06;5042818;28;19916;-75
2022/03/01 04:13:03;;;;;;;;;;;;;;;3.55;88.53;102671.06;5047416;28;20937;-75
2022/03/01 04:15:29;;;;;;;;;;;;;;;3.55;88.36;102677.28;5044925;28;19917;-75
2022/03/01 04:17:54;;;;;;;;;;;;;;;3.55;88.49;102677.28;5043429;28;19946;-76
2022/03/01 04:20:21;;;;;;;;;;;;;;;3.55;88.35;102663.81;5054244;28;19920;-75
2022/03/01 04:22:46;;;;;;;;;;;;;;;3.56;88.11;102652.00;5043549;28;20381;-75
2022/03/01 04:25:12;;;;;;;;;;;;;;;3.56;87.93;102662.78;5053962;28;19916;-75
2022/03/01 04:27:38;;;;;;;;;;;;;;;3.55;88.08;102646.78;5043193;28;19924;-75
2022/03/01 04:30:04;;;;;;;;;;;;;;;3.54;87.95;102637.84;5083047;28;19924;-76
2022/03/01 04:32:29;;;;;;;;;;;;;;;3.54;87.81;102645.09;5042387;28;19917;-76
2022/03/01 04:34:54;;;;;;;;;;;;;;;3.54;87.95;102654.03;5047324;28;19969;-76
2022/03/01 04:37:20;;;;;;;;;;;;;;;3.52;88.26;102650.69;5040219;28;19939;-76
2022/03/01 04:39:45;;;;;;;;;;;;;;;3.51;88.13;102649.00;5051894;28;19924;-75
2022/03/01 04:42:10;;;;;;;;;;;;;;;3.52;88.04;102620.19;5063604;28;20007;-76
2022/03/01 04:44:35;;;;;;;;;;;;;;;3.51;87.97;102649.00;5076218;28;19912;-76
2022/03/01 04:47:01;;;;;;;;;;;;;;;3.50;87.89;102668.91;5058170;28;20382;-76
2022/03/01 04:49:27;;;;;;;;;;;;;;;3.49;88.01;102648.34;5044679;28;19916;-76
2022/03/01 04:51:53;;;;;;;;;;;;;;;3.48;88.27;102638.56;5050189;28;19917;-76
2022/03/01 04:54:18;;;;;;;;;;;;;;;3.47;88.35;102631.50;5058034;28;19923;-77
2022/03/01 04:56:43;;;;;;;;;;;;;;;3.47;88.26;102636.06;5047549;28;19920;-76
2022/03/01 04:59:09;;;;;;;;;;;;;;;3.47;88.25;102627.97;5092764;28;20390;-75
2022/03/01 05:01:36;;;;;;;;;;;;;;;3.44;87.77;102621.09;5051125;28;19917;-76
2022/03/01 05:04:01;;;;;;;;;;;;;;;3.43;88.18;102629.34;5060319;28;19925;-76
2022/03/01 05:06:26;;;;;;;;;;;;;;;3.43;88.38;102623.97;5055816;28;19960;-76
2022/03/01 05:08:53;;;;;;;;;;;;;;;3.43;88.44;102619.41;5075868;28;19917;-76
2022/03/01 05:11:18;;;;;;;;;;;;;;;3.44;88.18;102606.78;5058976;28;19979;-77
2022/03/01 05:13:43;;;;;;;;;;;;;;;3.44;88.27;102594.13;5058160;28;20378;-76
2022/03/01 05:16:09;;;;;;;;;;;;;;;3.44;88.46;102610.31;5064395;28;19931;-75
2022/03/01 05:18:34;;;;;;;;;;;;;;;3.44;88.56;102614.88;5070502;28;20638;-76
2022/03/01 05:20:59;;;;;;;;;;;;;;;3.43;88.85;102619.41;5086347;28;19917;-76
2022/03/01 05:23:27;;;;;;;;;;;;;;;3.43;88.72;102615.88;5064820;28;20341;-76
2022/03/01 05:25:52;;;;;;;;;;;;;;;3.44;88.67;102626.50;5066756;28;19916;-76
2022/03/01 05:28:17;;;;;;;;;;;;;;;3.44;88.78;102629.19;5059721;28;19939;-76
2022/03/01 05:30:43;;;;;;;;;;;;;;;3.44;88.30;102631.88;5072705;28;19954;-76
2022/03/01 05:33:08;;;;;;;;;;;;;;;3.44;88.43;102621.09;5055237;28;20011;-75
2022/03/01 05:35:33;;;;;;;;;;;;;;;3.44;88.70;102612.19;5065680;28;19966;-76
2022/03/01 05:37:58;;;;;;;;;;;;;;;3.44;88.42;102631.06;5046202;28;19917;-76
2022/03/01 05:40:28;;;;;;;;;;;;;;;3.42;88.45;102617.72;5056576;28;20003;-76
2022/03/01 05:42:53;;;;;;;;;;;;;;;3.41;88.81;102621.47;5052180;28;19925;-76
2022/03/01 05:45:18;;;;;;;;;;;;;;;3.40;88.67;102614.38;5055502;28;20008;-76
2022/03/01 05:47:44;;;;;;;;;;;;;;;3.39;88.49;102620.78;5089188;28;19974;-76
2022/03/01 05:50:10;;;;;;;;;;;;;;;3.40;88.21;102608.16;5067369;28;19916;-75
2022/03/01 05:52:35;;;;;;;;;;;;;;;3.41;88.56;102612.50;5083633;28;19921;-76
2022/03/01 05:55:01;;;;;;;;;;;;;;;3.39;88.71;102604.63;5067588;28;19923;-76
2022/03/01 05:57:28;;;;;;;;;;;;;;;3.38;88.85;102594.84;5055088;28;20290;-76
2022/03/01 05:59:54;;;;;;;;;;;;;;;3.36;88.93;102613.06;5051004;28;20324;-75
2022/03/01 06:02:19;;;;;;;;;;;;;;;3.35;88.75;102611.38;5055116;28;19920;-76
2022/03/01 06:04:44;;;;;;;;;;;;;;;3.37;88.26;102620.13;5057861;28;19920;-76
2022/03/01 06:07:09;;;;;;;;;;;;;;;3.37;88.69;102611.22;5054118;28;19966;-76
2022/03/01 06:09:35;;;;;;;;;;;;;;;3.34;88.55;102615.09;5056458;28;19982;-76
2022/03/01 06:12:00;;;;;;;;;;;;;;;3.34;88.46;102610.53;5090457;28;19916;-76
2022/03/01 06:14:25;;;;;;;;;;;;;;;3.37;88.44;102614.75;5064981;28;19924;-75
2022/03/01 06:16:50;;;;;;;;;;;;;;;3.38;88.19;102626.34;5089608;28;19920;-75
2022/03/01 06:19:16;;;;;;;;;;;;;;;3.39;88.38;102622.66;5065082;28;20456;-75
2022/03/01 06:21:41;;;;;;;;;;;;;;;3.38;87.89;102632.59;5051087;28;20292;-75
2022/03/01 06:24:06;;;;;;;;;;;;;;;3.39;88.31;102628.88;5042402;28;19921;-76
2022/03/01 06:26:33;;;;;;;;;;;;;;;3.40;88.30;102619.75;5061569;28;19917;-76
2022/03/01 06:28:58;;;;;;;;;;;;;;;3.42;88.06;102636.59;5068513;28;19920;-75
2022/03/01 06:31:23;;;;;;;;;;;;;;;3.42;87.84;102625.81;5052439;28;20011;-75
2022/03/01 06:33:48;;;;;;;;;;;;;;;3.46;87.89;102632.50;5067103;28;19923;-75
2022/03/01 06:36:14;;;;;;;;;;;;;;;3.46;87.96;102613.63;5032819;28;19970;-75
2022/03/01 06:38:40;;;;;;;;;;;;;;;3.46;87.60;102619.03;5037544;28;20002;-75
2022/03/01 06:41:05;;;;;;;;;;;;;;;3.49;88.03;102640.28;5074400;28;19932;-75
2022/03/01 06:43:30;;;;;;;;;;;;;;;3.51;87.88;102629.28;5092243;28;19921;-76
2022/03/01 06:45:56;;;;;;;;;;;;;;;3.50;87.57;102633.84;5051383;28;19927;-75
2022/03/01 06:48:21;;;;;;;;;;;;;;;3.52;87.08;102645.31;5040267;28;19999;-76
2022/03/01 06:50:46;;;;;;;;;;;;;;;3.53;87.27;102654.22;5060270;28;19965;-76
2022/03/01 06:53:14;;;;;;;;;;;;;;;3.53;86.91;102663.16;5052866;28;19980;-76
2022/03/01 06:55:40;;;;;;;;;;;;;;;3.55;86.99;102676.47;5062193;28;19914;-76
2022/03/01 06:58:05;;;;;;;;;;;;;;;3.55;86.93;102677.28;5046158;28;19974;-76
2022/03/01 07:00:31;;;;;;;;;;;;;;;3.56;87.20;102700.53;5056332;28;19921;-76
2022/03/01 07:02:57;;;;;;;;;;;;;;;3.57;87.25;102690.59;5051000;28;19913;-76
2022/03/01 07:05:23;;;;;;;;;;;;;;;3.59;87.50;102680.47;5063399;28;19962;-76
2022/03/01 07:07:48;;;;;;;;;;;;;;;3.59;87.32;102687.72;5081130;28;20443;-77
2022/03/01 07:10:14;;;;;;;;;;;;;;;3.60;87.34;102692.09;5065010;28;19916;-76
2022/03/01 07:12:40;;;;;;;;;;;;;;;3.61;87.41;102693.78;5053335;28;19913;-76
2022/03/01 07:15:05;;;;;;;;;;;;;;;3.61;87.17;102691.09;5059631;28;19969;-76
2022/03/01 07:17:30;;;;;;;;;;;;;;;3.61;87.13;102691.09;5051437;28;19924;-76
2022/03/01 07:19:56;;;;;;;;;;;;;;;3.62;87.22;102676.56;5097375;28;19927;-76
2022/03/01 07:22:21;;;;;;;;;;;;;;;3.64;87.12;102664.56;5061346;28;19943;-76
2022/03/01 07:24:47;;;;;;;;;;;;;;;3.65;86.64;102660.00;5060353;28;20433;-76
2022/03/01 07:27:13;;;;;;;;;;;;;;;3.65;86.78;102660.84;5060074;28;19928;-77
2022/03/01 07:29:38;;;;;;;;;;;;;;;3.65;86.58;102666.25;5059604;28;19917;-75
2022/03/01 07:32:05;;;;;;;;;;;;;;;3.65;86.35;102687.81;5044482;28;20004;-76
2022/03/01 07:34:30;;;;;;;;;;;;;;;3.66;86.61;102692.22;5053639;28;19913;-76
2022/03/01 07:36:55;;;;;;;;;;;;;;;3.67;86.47;102696.56;5097233;28;19962;-76
2022/03/01 07:39:20;;;;;;;;;;;;;;;3.68;86.28;102697.41;5066854;28;19927;-76
2022/03/01 07:41:46;;;;;;;;;;;;;;;3.67;86.23;102696.56;5053069;28;19917;-76
2022/03/01 07:44:11;;;;;;;;;;;;;;;3.67;86.49;102701.97;5064662;28;20038;-76
2022/03/01 07:46:36;;;;;;;;;;;;;;;3.69;85.90;102699.09;5050078;28;19931;-76
2022/03/01 07:49:01;;;;;;;;;;;;;;;3.69;86.00;102682.94;5066038;28;20011;-76
2022/03/01 07:51:27;;;;;;;;;;;;;;;3.69;86.01;102691.03;5065588;28;19912;-76
2022/03/01 07:53:52;;;;;;;;;;;;;;;3.71;85.83;102699.75;5053412;28;19956;-76
2022/03/01 07:56:20;;;;;;;;;;;;;;;3.73;85.96;102689.63;5073131;28;20365;-76
2022/03/01 07:58:46;;;;;;;;;;;;;;;3.72;85.22;102690.66;5056533;28;19923;-77
2022/03/01 08:01:11;;;;;;;;;;;;;;;3.71;85.25;102681.72;5057488;28;20015;-77
2022/03/01 08:03:36;;;;;;;;;;;;;;;3.73;85.28;102670.72;5052507;28;19963;-76
2022/03/01 08:06:01;;;;;;;;;;;;;;;3.73;85.44;102673.44;5046826;28;19928;-77
2022/03/01 08:08:27;;;;;;;;;;;;;;;3.72;85.05;102674.47;5050950;28;20425;-76
2022/03/01 08:10:52;;;;;;;;;;;;;;;3.71;84.91;102651.19;5051181;28;20390;-76
2022/03/01 08:13:17;;;;;;;;;;;;;;;3.72;84.86;102666.38;5081130;28;19982;-76
2022/03/01 08:15:43;;;;;;;;;;;;;;;3.73;84.73;102678.81;5072566;28;19968;-76
2022/03/01 08:18:08;;;;;;;;;;;;;;;3.73;84.40;102700.41;5059467;28;19916;-76
2022/03/01 08:20:33;;;;;;;;;;;;;;;3.73;84.01;102692.31;5075241;28;19992;-76
2022/03/01 08:22:58;;;;;;;;;;;;;;;3.78;84.41;102703.41;5062775;28;19959;-77
2022/03/01 08:25:24;;;;;;;;;;;;;;;3.81;84.32;102702.22;5109284;28;20401;-76
2022/03/01 08:27:49;;;;;;;;;;;;;;;3.84;84.34;102686.47;5053612;28;19921;-76
2022/03/01 08:30:14;;;;;;;;;;;;;;;3.84;83.90;102702.69;5060299;28;20410;-77
2022/03/01 08:32:39;;;;;;;;;;;;;;;3.85;84.01;102688.19;5100531;28;19921;-76
2022/03/01 08:35:05;;;;;;;;;;;;;;;3.87;83.89;102694.22;5062323;28;20374;-76
2022/03/01 08:37:30;;;;;;;;;;;;;;;3.88;83.51;102692.38;5055679;28;20390;-77
2022/03/01 08:39:55;;;;;;;;;;;;;;;3.89;83.38;102689.47;5055935;28;20011;-76
2022/03/01 08:42:20;;;;;;;;;;;;;;;3.92;83.58;102688.28;5064847;28;19959;-76
2022/03/01 08:44:46;;;;;;;;;;;;;;;3.95;83.46;102685.22;5064051;28;19948;-76
2022/03/01 08:47:11;;;;;;;;;;;;;;;3.99;82.95;102694.63;5104943;28;19978;-77
2022/03/01 08:49:36;;;;;;;;;;;;;;;4.02;83.07;102698.81;5089085;28;19970;-77
2022/03/01 08:52:02;;;;;;;;;;;;;;;4.04;83.04;102705.72;5062011;28;19917;-77
2022/03/01 08:54:27;;;;;;;;;;;;;;;4.08;82.99;102701.63;5089185;28;20436;-77
2022/03/01 08:56:52;;;;;;;;;;;;;;;4.11;82.79;102703.13;5069488;28;19916;-77
2022/03/01 08:59:18;;;;;;;;;;;;;;;4.12;82.41;102715.56;5069592;28;19917;-77
2022/03/01 09:01:43;;;;;;;;;;;;;;;4.11;82.35;102695.03;5066418;28;19923;-77
2022/03/01 09:04:08;;;;;;;;;;;;;;;4.10;82.46;102690.66;5062573;28;19940;-77
2022/03/01 09:06:33;;;;;;;;;;;;;;;4.07;81.75;102699.94;5075246;28;19912;-77
2022/03/01 09:08:59;;;;;;;;;;;;;;;4.06;82.22;102700.13;5069827;28;20211;-77
2022/03/01 09:11:24;;;;;;;;;;;;;;;4.06;82.15;102705.53;5072906;28;19962;-77
2022/03/01 09:13:49;;;;;;;;;;;;;;;4.05;81.93;102693.91;5097974;28;20293;-77
2022/03/01 09:16:15;;;;;;;;;;;;;;;4.07;81.95;102691.03;5095651;28;20104;-76
2022/03/01 09:18:40;;;;;;;;;;;;;;;4.07;82.02;102696.41;5101386;28;19927;-77
2022/03/01 09:21:06;;;;;;;;;;;;;;;4.09;82.19;102697.06;5097275;28;19916;-76
2022/03/01 09:23:31;;;;;;;;;;;;;;;4.14;82.07;102700.03;5051769;28;20090;-76
2022/03/01 09:25:56;;;;;;;;;;;;;;;4.15;82.06;102699.03;5055089;28;19925;-76
2022/03/01 09:28:22;;;;;;;;;;;;;;;4.21;81.82;102684.81;5083692;28;19983;-76
2022/03/01 09:30:47;;;;;;;;;;;;;;;4.22;81.56;102687.28;5073585;28;19916;-76
2022/03/01 09:33:12;;;;;;;;;;;;;;;4.24;81.36;102697.94;5065599;28;19939;-76
2022/03/01 09:35:37;;;;;;;;;;;;;;;4.28;81.55;102714.59;5051861;28;20019;-76
2022/03/01 09:38:03;;;;;;;;;;;;;;;4.29;81.32;102698.22;5054793;28;19943;-77
2022/03/01 09:40:28;;;;;;;;;;;;;;;4.36;81.53;102687.50;5057129;28;20006;-77
2022/03/01 09:42:54;;;;;;;;;;;;;;;4.39;81.25;102704.19;5095485;28;20393;-76
2022/03/01 09:45:20;;;;;;;;;;;;;;;4.39;81.11;102687.97;5068139;28;19913;-76
2022/03/01 09:47:45;;;;;;;;;;;;;;;4.39;80.77;102693.38;5050123;28;20283;-76
2022/03/01 09:50:10;;;;;;;;;;;;;;;4.40;80.81;102705.84;5063727;28;19912;-76
2022/03/01 09:52:36;;;;;;;;;;;;;;;4.39;80.71;102704.19;5075080;28;19952;-76
2022/03/01 09:55:01;;;;;;;;;;;;;;;4.36;80.93;102691.03;5059937;28;19981;-76
2022/03/01 09:57:26;;;;;;;;;;;;;;;4.38;80.82;102680.88;5058983;28;19917;-76
2022/03/01 09:59:51;;;;;;;;;;;;;;;4.38;80.91;102678.19;5059197;28;19920;-76
2022/03/01 10:02:16;;;;;;;;;;;;;;;4.37;80.46;102686.50;5061618;28;19923;-76
2022/03/01 10:04:55;;;;;;;;;;;;;;;4.36;80.83;102701.00;5055619;28;20007;-77
2022/03/01 10:07:21;;;;;;;;;;;;;;;4.38;80.62;102698.97;5054983;28;19920;-76
2022/03/01 10:09:48;;;;;;;;;;;;;;;4.37;80.83;102708.09;5081683;28;19927;-76
2022/03/01 10:12:13;;;;;;;;;;;;;;;4.34;80.90;102692.28;5058800;28;19921;-77
2022/03/01 10:14:40;;;;;;;;;;;;;;;4.30;80.95;102686.38;5048848;28;19917;-76
2022/03/01 10:17:12;;;;;;;;;;;;;;;4.31;81.00;102698.88;5058554;28;19912;-76
2022/03/01 10:19:38;;;;;;;;;;;;;;;4.30;81.04;102712.53;5053831;28;19921;-76
2022/03/01 10:22:03;;;;;;;;;;;;;;;4.31;81.20;102693.47;5062649;28;19996;-76
2022/03/01 10:24:28;;;;;;;;;;;;;;;4.32;81.30;102683.50;5071862;28;19959;-77
2022/03/01 10:26:57;;;;;;;;;;;;;;;4.36;81.55;102693.72;5095450;28;19943;-76
2022/03/01 10:29:25;;;;;;;;;;;;;;;4.39;81.34;102706.03;5052062;28;19924;-76
2022/03/01 10:31:52;;;;;;;;;;;;;;;4.39;81.74;102711.44;5057950;28;20464;-76
2022/03/01 10:34:17;;;;;;;;;;;;;;;4.38;81.39;102709.75;5052364;28;19917;-76
2022/03/01 10:36:47;;;;;;;;;;;;;;;4.39;81.86;102700.63;5055027;28;20301;-76
2022/03/01 10:39:19;;;;;;;;;;;;;;;4.39;82.01;102697.91;5100694;28;19921;-76
2022/03/01 10:41:48;;;;;;;;;;;;;;;4.36;81.83;102704.53;5073813;28;19947;-76
2022/03/01 10:44:16;;;;;;;;;;;;;;;4.34;81.71;102720.09;5061946;28;19944;-76
2022/03/01 10:46:46;;;;;;;;;;;;;;;4.30;82.09;102707.97;5066580;28;20459;-76
2022/03/01 10:49:12;;;;;;;;;;;;;;;4.28;82.55;102714.59;5050738;28;19916;-76
2022/03/01 10:52:08;;;;;;;;;;;;;;;4.26;82.67;102720.19;5052971;28;19913;-76
2022/03/01 10:54:36;;;;;;;;;;;;;;;4.19;83.03;102705.72;5042911;28;19995;-76
2022/03/01 10:57:02;;;;;;;;;;;;;;;4.15;83.13;102705.28;5088092;28;19986;-75
2022/03/01 10:59:28;;;;;;;;;;;;;;;4.16;83.39;102696.13;5071020;28;19924;-76
2022/03/01 11:01:54;;;;;;;;;;;;;;;4.16;83.57;102700.72;5052958;28;19917;-76
2022/03/01 11:04:21;;;;;;;;;;;;;;;4.17;83.65;102705.06;5053487;28;19917;-76
2022/03/01 11:06:46;;;;;;;;;;;;;;;4.12;83.97;102711.03;5071387;28;20009;-76
2022/03/01 11:09:11;;;;;;;;;;;;;;;4.14;84.14;102710.84;5078957;28;19971;-76
2022/03/01 11:11:37;;;;;;;;;;;;;;;4.18;84.40;102709.47;5096143;28;20014;-76
2022/03/01 11:14:02;;;;;;;;;;;;;;;4.19;84.09;102714.66;5044483;28;20014;-76
2022/03/01 11:16:31;;;;;;;;;;;;;;;4.22;83.97;102717.00;5085498;28;20010;-76
2022/03/01 11:19:12;;;;;;;;;;;;;;;4.25;83.89;102718.50;5091676;28;19921;-76
2022/03/01 11:21:37;;;;;;;;;;;;;;;4.24;83.60;102719.53;5054266;28;19916;-77
2022/03/01 11:24:02;;;;;;;;;;;;;;;4.27;83.28;102718.31;5084198;28;19939;-75
2022/03/01 11:26:37;;;;;;;;;;;;;;;4.27;83.22;102716.44;5099536;28;19945;-76
2022/03/01 11:29:06;;;;;;;;;;;;;;;4.30;82.72;102712.53;5052550;28;19929;-76
2022/03/01 11:31:31;;;;;;;;;;;;;;;4.29;82.43;102709.00;5052726;28;19920;-76
2022/03/01 11:34:10;;;;;;;;;;;;;;;4.33;82.23;102710.31;5064722;28;20278;-76
2022/03/01 11:36:35;;;;;;;;;;;;;;;4.36;82.18;102701.84;5093461;28;20410;-76
2022/03/01 11:39:10;;;;;;;;;;;;;;;4.38;81.69;102724.09;5097224;28;20008;-75
2022/03/01 11:41:45;;;;;;;;;;;;;;;4.42;81.91;102717.31;5047413;28;20290;-76
2022/03/01 11:44:10;;;;;;;;;;;;;;;4.43;81.91;102724.38;5036699;28;20618;-76
2022/03/01 11:46:39;;;;;;;;;;;;;;;4.44;81.47;102714.41;5052513;28;19923;-77
2022/03/01 11:49:05;;;;;;;;;;;;;;;4.39;81.51;102714.13;5054279;28;19921;-76
2022/03/01 11:51:34;;;;;;;;;;;;;;;4.38;81.49;102726.78;5098613;28;20346;-76
2022/03/01 11:54:20;;;;;;;;;;;;;;;4.38;81.52;102720.56;5089824;28;19916;-76
2022/03/01 11:56:46;;;;;;;;;;;;;;;4.38;81.81;102718.69;5069887;28;19977;-76
2022/03/01 11:59:12;;;;;;;;;;;;;;;4.40;81.84;102711.25;5088067;28;19925;-76
2022/03/01 12:01:37;;;;;;;;;;;;;;;4.38;81.63;102718.69;5053604;28;19917;-76
2022/03/01 12:04:06;;;;;;;;;;;;;;;4.38;81.51;102724.09;5051261;28;19951;-76
2022/03/01 12:06:33;;;;;;;;;;;;;;;4.40;81.34;102730.16;5067536;28;19962;-76
2022/03/01 12:08:59;;;;;;;;;;;;;;;4.45;81.04;102725.03;5108296;28;19923;-76
2022/03/01 12:11:36;;;;;;;;;;;;;;;4.47;80.60;102707.81;5059873;28;19916;-76
2022/03/01 12:14:03;;;;;;;;;;;;;;;4.50;80.39;102723.63;5073073;28;19923;-76
2022/03/01 12:16:28;;;;;;;;;;;;;;;4.48;80.24;102712.19;5055429;28;19925;-76
2022/03/01 12:19:03;;;;;;;;;;;;;;;4.47;80.37;102718.59;5056487;28;19936;-76
2022/03/01 12:21:28;;;;;;;;;;;;;;;4.41;80.03;102710.22;5052287;28;19917;-75
2022/03/01 12:23:54;;;;;;;;;;;;;;;4.38;79.98;102713.28;5062889;28;19922;-75
2022/03/01 12:26:19;;;;;;;;;;;;;;;4.37;79.95;102700.81;5078877;28;19917;-76
2022/03/01 12:28:45;;;;;;;;;;;;;;;4.38;79.59;102699.78;5064636;28;19942;-76
2022/03/01 12:31:13;;;;;;;;;;;;;;;4.36;79.69;102699.13;5085566;28;19925;-76
2022/03/01 12:33:51;;;;;;;;;;;;;;;4.40;79.75;102691.53;5060358;28;19916;-76
2022/03/01 12:36:23;;;;;;;;;;;;;;;4.37;80.10;102689.19;5062687;28;20003;-76
2022/03/01 12:38:51;;;;;;;;;;;;;;;4.36;79.95;102693.72;5062573;28;20293;-76
2022/03/01 12:41:18;;;;;;;;;;;;;;;4.38;80.04;102689.00;5054741;28;20410;-76